General Ignacio P Garcia International Airport
MMHO : now visible

Airfield :











YOU CAN JOIN US ON...

 
LOGIN :

Register | Disclaimer

   EN    FR    IT 

 









Legend :    VFR   Marginal VFR   IFR   Intensive IFR   Very Intensive IFR
Visi :
Ceiling :
>= 8 km
>= 3000ft
5 to 8 km
1000 to 3000 ft
1500m to 5 km
500 to 1000 ft
800 to 1500m
200 to 500 ft
< 800m
< 200 ft
Symbols :   Thunderstorms  Fog  Heavy snow  Heavy precipitations  Wind > 20 kt






- Airport Elevation : 627 ft
- IATA code : HMO


MMHO - General Ignacio P Garcia International

CURRENT METAR :
  • 090140Z 27003KT 10SM BKN080 OVC200 22/14 A2998 RMK 8/037 BINOVC ISOL SC HZY

EXPIRED METARs :
  • 090040Z 28003KT 10SM BKN080 BKN200 23/14 A2998 RMK 8/038 ISOL SC HZY
  • 082340Z 24003KT 10SM SCT080 BKN200 26/13 A2998 RMK SLP153 57007 966 8/038 ISOL SC HZY

TAF TAF MMHO
Valid from the 08 at 18:00 until the 09 at 18:00 UTC


081703Z 0818/0918 23005KT P6SM BKN220
FM082000 23010KT P6SM BKN090 BKN220
FM090100 27006KT P6SM SCT040 BKN090
PROB40 0902/0906 6SM -RA BKN040
FM090800 29006KT P6SM -RA BKN040 OVC090
PROB40 0914/0918 4SM RA OVC040



MET'MAP, your aeronautical weather chart ! - Copyright ORBIFLY December 2007 - Disclaimer

ORBIFLY MET'MAP TEAM :

Programming & Development : Alexandra Zaïnal
Concept & original design : Baudouin d'Aumeries
Assistance for programming : Marc-Olivier Méhu
Technical & hardware support : Manuel Goepfert

Contact : metmap@orbifly.com




SOURCES & CREDITS :

   NOAA       Earth
Advisory